St Catherine's Point, United Kingdom
Current Conditions -  °F | °C
As of 2:50 PM on Friday 19 Dec 2014 (Local Time) from EGHI Reporting Station
Few Clouds Few Clouds  
Wind Chill: 41°   Ceiling: Unl
Heat Index: 46°   Visibility: 6mi
Dew Point: 34°   Wind: 13mph
Humidity: 62%   Direction: 290°WNW
Pressure: 30.09"   Gusts: NA
Location:  50.58°N, 1.3°W
Report Text: EGHI 191450Z 29011KT 270V330 9999 FEW032 08/01 Q1019
Loading
Personal Weather Stations






























Interactive Weather Map New forecast layout! Learn more

10-Day Weather Forecast

Advertisements
Track Severe Weather on mobile